Littleport, United Kingdom
Current Conditions -  °F | °C
As of 4:58 AM on Thursday 23 Oct 2014 (Local Time) from EGUN Reporting Station
Overcast Overcast  
Wind Chill: 11°   Ceiling: 3100
Heat Index: 11°   Visibility: 6mi
Dew Point: 11°   Wind: 9mph
Humidity: 100%   Direction: 220°SW
Pressure: 30.12"   Gusts: NA
Location:  52.46°N, 0.31°E
Report Text: EGUN 230358Z AUTO 22008KT 9999 OVC031 11/11 A3012 RMK AO2 SLP203 T01090109 $
Loading
Personal Weather Stations






























Interactive Weather Map
Tropical Storm Tracking
New forecast layout! Learn more

10-Day Weather Forecast

Advertisements
Track Severe Weather on mobile